Time;durP1;ratioP1;P1;durP2;ratioP2;P2;SDS_P1;SDS_P2;PMS_P1;PMS_P2;Temp;Humidity;BMP_temperature;BMP_pressure;BME280_temperature;BME280_humidity;BME280_pressure;Samples;Min_cycle;Max_cycle;Signal;HPM_P1;HPM_P2
2022/08/06 00:02:20;;;;;;;2.50;1.67;;;;;;;18.62;55.63;96228.06;5024410;28;20207;-79
2022/08/06 00:04:46;;;;;;;3.60;1.65;;;;;;;18.75;55.20;96242.44;5023474;28;20293;-79
2022/08/06 00:07:11;;;;;;;3.05;2.00;;;;;;;18.61;54.01;96229.06;5038197;28;20197;-79
2022/08/06 00:09:36;;;;;;;3.53;2.22;;;;;;;18.55;53.81;96236.84;5024360;28;20186;-78
2022/08/06 00:12:04;;;;;;;2.25;1.90;;;;;;;18.50;54.57;96226.06;5021626;28;20179;-79
2022/08/06 00:14:30;;;;;;;2.38;1.70;;;;;;;18.58;54.55;96226.81;5024314;28;20286;-79
2022/08/06 00:16:55;;;;;;;4.93;1.95;;;;;;;18.66;54.61;96234.63;5007620;28;20191;-78
2022/08/06 00:19:21;;;;;;;2.97;1.58;;;;;;;18.43;55.43;96233.84;5020843;28;20546;-78
2022/08/06 00:21:46;;;;;;;5.15;1.90;;;;;;;18.65;54.75;96227.75;5022982;28;20638;-78
2022/08/06 00:24:12;;;;;;;4.18;1.80;;;;;;;18.55;54.99;96224.53;5032610;28;20203;-79
2022/08/06 00:26:38;;;;;;;2.38;1.90;;;;;;;18.55;54.66;96229.81;5020593;28;20612;-79
2022/08/06 00:29:04;;;;;;;2.65;2.00;;;;;;;18.44;54.92;96224.16;5031147;28;20188;-78
2022/08/06 00:31:29;;;;;;;2.95;1.70;;;;;;;18.56;54.21;96228.81;5021957;28;20183;-78
2022/08/06 00:33:55;;;;;;;3.17;1.88;;;;;;;18.27;55.34;96229.56;5031121;28;20547;-78
2022/08/06 00:36:22;;;;;;;2.17;1.80;;;;;;;18.34;55.02;96225.22;5020623;28;20247;-79
2022/08/06 00:38:47;;;;;;;2.30;1.88;;;;;;;18.35;54.90;96236.56;5020569;28;20221;-78
2022/08/06 00:41:14;;;;;;;1.98;1.58;;;;;;;18.40;53.71;96232.41;5039049;28;20194;-79
2022/08/06 00:43:40;;;;;;;2.85;1.60;;;;;;;18.37;53.53;96234.56;5020120;28;20573;-79
2022/08/06 00:46:06;;;;;;;3.20;1.60;;;;;;;18.20;54.11;96228.66;5008931;28;20186;-79
2022/08/06 00:48:31;;;;;;;2.10;1.70;;;;;;;18.14;54.41;96234.63;5036762;28;20193;-80
2022/08/06 00:50:57;;;;;;;3.08;1.80;;;;;;;18.19;54.57;96234.06;5026730;28;20256;-79
2022/08/06 00:53:22;;;;;;;4.70;2.17;;;;;;;18.13;54.57;96234.81;5026404;28;20207;-80
2022/08/06 00:55:47;;;;;;;2.55;1.65;;;;;;;18.31;54.00;96230.84;5040948;28;20273;-79
2022/08/06 00:58:12;;;;;;;2.13;1.65;;;;;;;18.38;53.83;96239.66;5024761;28;20183;-79
2022/08/06 01:00:38;;;;;;;2.20;1.85;;;;;;;18.36;53.78;96239.00;5024935;28;20654;-78
2022/08/06 01:03:03;;;;;;;1.98;1.70;;;;;;;18.20;53.69;96244.44;5022660;28;20214;-78
2022/08/06 01:05:28;;;;;;;3.25;1.90;;;;;;;18.11;54.10;96240.25;5017529;28;20567;-79
2022/08/06 01:07:54;;;;;;;5.60;1.85;;;;;;;18.10;54.38;96244.66;5040316;28;20190;-78
2022/08/06 01:10:21;;;;;;;2.78;1.90;;;;;;;17.99;54.60;96247.72;5039031;28;20190;-80
2022/08/06 01:12:47;;;;;;;3.88;1.75;;;;;;;18.10;54.73;96246.47;5021899;28;20190;-79
2022/08/06 01:15:12;;;;;;;3.67;1.65;;;;;;;17.92;54.76;96243.34;5025851;28;20633;-79
2022/08/06 01:17:41;;;;;;;4.95;1.67;;;;;;;18.08;54.14;96243.22;5040919;28;20671;-79
2022/08/06 01:20:34;;;;;;;2.53;1.70;;;;;;;18.10;54.04;96249.09;5004194;28;20222;-80
2022/08/06 01:23:20;;;;;;;2.90;1.70;;;;;;;18.03;54.44;96243.75;5042707;28;20218;-79
2022/08/06 01:25:52;;;;;;;3.10;2.05;;;;;;;17.81;54.54;96240.13;5019132;28;20282;-80
2022/08/06 01:28:17;;;;;;;3.33;1.73;;;;;;;17.95;54.24;96243.81;5016569;28;20188;-79
2022/08/06 01:30:51;;;;;;;3.88;1.80;;;;;;;17.83;54.57;96245.22;5009228;28;20193;-78
2022/08/06 01:33:33;;;;;;;2.78;1.50;;;;;;;17.89;54.13;96254.22;5032659;28;20198;-79
2022/08/06 01:36:01;;;;;;;1.80;1.50;;;;;;;17.77;54.72;96249.38;5021339;28;20186;-79
2022/08/06 01:38:35;;;;;;;2.90;1.77;;;;;;;17.59;55.38;96267.19;5039012;28;20206;-79
2022/08/06 01:41:04;;;;;;;4.82;2.10;;;;;;;17.59;55.53;96264.56;5022490;28;20273;-79
2022/08/06 01:43:31;;;;;;;3.47;1.90;;;;;;;17.72;54.96;96262.19;5033089;28;20207;-79
2022/08/06 01:45:57;;;;;;;3.72;1.73;;;;;;;17.80;55.01;96262.16;5020703;28;20541;-79
2022/08/06 01:48:25;;;;;;;2.83;1.88;;;;;;;17.61;55.39;96257.31;5022383;28;20182;-79
2022/08/06 01:50:51;;;;;;;1.67;1.58;;;;;;;17.62;55.04;96258.13;5022337;28;20708;-79
2022/08/06 01:53:21;;;;;;;3.53;1.90;;;;;;;17.53;55.64;96265.25;5023999;28;20267;-79
2022/08/06 01:55:49;;;;;;;4.43;1.90;;;;;;;17.64;55.69;96267.47;5043080;28;20244;-79
2022/08/06 01:58:21;;;;;;;5.00;1.60;;;;;;;17.67;55.51;96263.66;5022226;28;20179;-78
2022/08/06 02:00:51;;;;;;;2.40;1.60;;;;;;;17.58;55.65;96268.19;5029534;28;20183;-79
2022/08/06 02:03:21;;;;;;;2.25;1.50;;;;;;;17.39;56.58;96260.72;5007556;28;20706;-79
2022/08/06 02:05:47;;;;;;;1.65;1.48;;;;;;;17.63;55.79;96263.22;5026394;28;20277;-78
2022/08/06 02:08:14;;;;;;;4.07;2.15;;;;;;;17.51;56.25;96265.44;5045670;28;20256;-79
2022/08/06 02:10:40;;;;;;;3.13;1.75;;;;;;;17.46;56.29;96261.69;5027682;28;20186;-79
2022/08/06 02:13:07;;;;;;;2.33;1.52;;;;;;;17.50;56.15;96260.34;5026663;28;20581;-78
2022/08/06 02:15:34;;;;;;;1.70;1.60;;;;;;;17.57;56.14;96269.16;5045297;28;20198;-80
2022/08/06 02:18:01;;;;;;;1.88;1.70;;;;;;;17.54;56.34;96261.63;5036041;28;20244;-79
2022/08/06 02:20:32;;;;;;;3.63;1.50;;;;;;;17.50;56.32;96260.34;5026409;28;20215;-80
2022/08/06 02:22:58;;;;;;;2.15;1.60;;;;;;;17.50;56.44;96258.53;5038251;28;20199;-79
2022/08/06 02:25:23;;;;;;;2.80;1.60;;;;;;;17.35;57.11;96262.88;5026749;28;20182;-78
2022/08/06 02:27:50;;;;;;;3.60;1.70;;;;;;;17.52;56.44;96269.69;5043859;28;20183;-79
2022/08/06 02:30:16;;;;;;;2.03;1.85;;;;;;;17.56;56.28;96259.63;5021370;28;20189;-79
2022/08/06 02:32:42;;;;;;;2.97;1.58;;;;;;;17.23;57.61;96257.22;5026415;28;20575;-80
2022/08/06 02:35:08;;;;;;;1.73;1.63;;;;;;;17.39;57.15;96250.22;5042818;28;20218;-80
2022/08/06 02:37:38;;;;;;;2.25;1.75;;;;;;;17.27;57.61;96242.75;5005787;28;20278;-81
2022/08/06 02:40:19;;;;;;;1.98;1.30;;;;;;;17.25;57.82;96247.34;5024900;28;20206;-80
2022/08/06 02:42:53;;;;;;;1.95;1.42;;;;;;;17.39;57.46;96258.09;5023013;28;20182;-79
2022/08/06 02:45:33;;;;;;;2.75;1.48;;;;;;;17.18;58.24;96256.91;5023060;28;20186;-80
2022/08/06 02:48:06;;;;;;;4.30;1.63;;;;;;;17.17;58.04;96257.88;5027304;28;20190;-80
2022/08/06 02:50:36;;;;;;;2.15;1.60;;;;;;;16.84;59.83;96266.88;5026836;28;20270;-80
2022/08/06 02:53:05;;;;;;;4.13;1.98;;;;;;;17.03;59.33;96257.78;5004305;28;20718;-80
2022/08/06 02:55:33;;;;;;;3.03;1.80;;;;;;;16.94;59.83;96263.06;5025212;28;20274;-80
2022/08/06 02:58:07;;;;;;;4.13;1.80;;;;;;;17.04;59.22;96262.84;5026297;28;20179;-79
2022/08/06 03:00:36;;;;;;;2.33;1.70;;;;;;;17.14;59.05;96255.63;5023950;28;20647;-80
2022/08/06 03:03:02;;;;;;;3.25;1.90;;;;;;;16.89;60.29;96260.13;5024169;28;20237;-80
2022/08/06 03:05:28;;;;;;;2.58;1.83;;;;;;;16.85;60.21;96258.81;5025903;28;20206;-80
2022/08/06 03:07:55;;;;;;;1.70;1.60;;;;;;;16.95;60.04;96261.25;5024481;28;20183;-80
2022/08/06 03:10:22;;;;;;;3.15;1.80;;;;;;;16.97;59.95;96262.72;5008174;28;20179;-80
2022/08/06 03:12:48;;;;;;;2.58;2.15;;;;;;;16.90;60.47;96260.94;5017246;28;20764;-80
2022/08/06 03:15:15;;;;;;;3.33;1.60;;;;;;;16.82;60.51;96264.41;5024445;28;20183;-80
2022/08/06 03:17:41;;;;;;;4.38;1.95;;;;;;;16.81;61.10;96256.72;5024155;28;20239;-79
2022/08/06 03:20:08;;;;;;;3.42;2.00;;;;;;;16.79;61.04;96259.53;5019502;28;20257;-79
2022/08/06 03:22:34;;;;;;;2.90;1.92;;;;;;;16.68;61.39;96263.28;5008522;28;20182;-80
2022/08/06 03:25:01;;;;;;;3.92;1.63;;;;;;;16.80;61.08;96269.03;5033609;28;20630;-80
2022/08/06 03:27:26;;;;;;;5.40;2.00;;;;;;;16.90;60.65;96276.69;5020544;28;20241;-80
2022/08/06 03:29:53;;;;;;;3.38;2.10;;;;;;;16.85;61.10;96276.38;5008690;28;20333;-80
2022/08/06 03:32:18;;;;;;;5.03;2.22;;;;;;;16.83;61.12;96287.03;5034333;28;20206;-80
2022/08/06 03:34:44;;;;;;;3.28;2.08;;;;;;;16.80;61.13;96282.13;5022561;28;20206;-80
2022/08/06 03:37:10;;;;;;;4.03;2.20;;;;;;;16.85;61.15;96285.06;5025399;28;20193;-79
2022/08/06 03:39:37;;;;;;;2.13;2.00;;;;;;;16.70;61.92;96282.31;5016921;28;20276;-80
2022/08/06 03:42:03;;;;;;;5.43;2.20;;;;;;;16.72;61.63;96286.59;5004694;28;20183;-80
2022/08/06 03:44:28;;;;;;;2.80;2.10;;;;;;;16.83;61.28;96287.03;5024167;28;20238;-80
2022/08/06 03:47:02;;;;;;;6.88;2.00;;;;;;;16.91;60.98;96288.81;5042506;28;20225;-79
2022/08/06 03:50:02;;;;;;;3.13;1.98;;;;;;;16.74;62.00;96292.47;4992922;28;20185;-80
2022/08/06 03:52:29;;;;;;;3.25;1.70;;;;;;;16.75;61.80;96294.09;5040674;28;20281;-80
2022/08/06 03:55:05;;;;;;;3.08;1.90;;;;;;;16.70;61.83;96284.13;5004290;28;20258;-80
2022/08/06 03:57:35;;;;;;;4.68;2.10;;;;;;;16.60;62.09;96286.88;5023602;28;20544;-80
2022/08/06 04:00:02;;;;;;;4.57;2.05;;;;;;;16.51;62.27;96298.38;5024922;28;20638;-79
2022/08/06 04:02:33;;;;;;;5.75;2.75;;;;;;;16.46;62.71;96300.69;5041616;28;20186;-80
2022/08/06 04:05:00;;;;;;;2.67;2.00;;;;;;;16.54;62.43;96297.22;5031281;28;20185;-79
2022/08/06 04:07:26;;;;;;;2.88;2.00;;;;;;;16.61;62.07;96292.97;5027528;28;20628;-80
2022/08/06 04:09:52;;;;;;;2.22;1.83;;;;;;;16.60;62.14;96289.50;5025727;28;20175;-80
2022/08/06 04:12:17;;;;;;;3.35;2.00;;;;;;;16.61;62.23;96293.78;5025687;28;20249;-80
2022/08/06 04:14:43;;;;;;;3.83;2.20;;;;;;;16.56;62.60;96300.50;5025009;28;20221;-80
2022/08/06 04:17:09;;;;;;;3.55;2.17;;;;;;;16.43;63.34;96301.00;5044144;28;20189;-80
2022/08/06 04:19:34;;;;;;;3.42;1.92;;;;;;;16.40;63.11;96296.09;5023769;28;20253;-80
2022/08/06 04:22:00;;;;;;;5.00;1.83;;;;;;;16.35;63.48;96304.47;5025621;28;20182;-80
2022/08/06 04:24:25;;;;;;;3.72;2.10;;;;;;;16.37;63.25;96309.53;5041592;28;20260;-80
2022/08/06 04:26:52;;;;;;;3.80;2.00;;;;;;;16.39;63.43;96305.75;5025547;28;20186;-80
2022/08/06 04:29:19;;;;;;;3.30;2.10;;;;;;;16.49;62.97;96313.44;5026642;28;20658;-79
2022/08/06 04:31:46;;;;;;;2.83;1.90;;;;;;;16.36;63.43;96311.34;5026288;28;20727;-79
2022/08/06 04:34:13;;;;;;;3.95;2.10;;;;;;;16.39;63.28;96320.66;5004767;28;20215;-79
2022/08/06 04:36:39;;;;;;;4.65;1.90;;;;;;;16.60;62.71;96317.53;5025716;28;20226;-80
2022/08/06 04:39:05;;;;;;;3.75;2.15;;;;;;;16.66;62.45;96322.13;5024110;28;20225;-79
2022/08/06 04:41:31;;;;;;;2.55;1.85;;;;;;;16.59;62.54;96316.72;5022883;28;20191;-80
2022/08/06 04:43:56;;;;;;;2.17;1.98;;;;;;;16.39;63.53;96310.19;5024598;28;20222;-80
2022/08/06 04:46:22;;;;;;;4.10;2.00;;;;;;;16.89;61.59;96320.47;5042218;28;20183;-79
2022/08/06 04:48:47;;;;;;;3.63;1.63;;;;;;;17.04;61.11;96314.50;5023589;28;20216;-80
2022/08/06 04:51:14;;;;;;;3.95;2.15;;;;;;;16.85;61.93;96306.03;5025185;28;20265;-79
2022/08/06 04:53:40;;;;;;;3.50;1.98;;;;;;;16.74;62.55;96314.28;5033255;28;20202;-79
2022/08/06 04:56:06;;;;;;;2.45;2.05;;;;;;;16.85;61.88;96321.78;5026371;28;20185;-79
2022/08/06 04:58:33;;;;;;;5.28;2.28;;;;;;;17.04;61.90;96325.00;5022917;28;20202;-79
2022/08/06 05:00:58;;;;;;;2.33;1.90;;;;;;;16.91;61.73;96330.78;5009471;28;20194;-79
2022/08/06 05:03:24;;;;;;;4.07;2.13;;;;;;;17.37;60.41;96330.97;5025544;28;20206;-78
2022/08/06 05:06:08;;;;;;;4.07;2.10;;;;;;;18.11;57.88;96342.75;5027275;28;20194;-79
2022/08/06 05:08:35;;;;;;;3.55;2.10;;;;;;;18.87;55.01;96352.31;5038055;28;20171;-77
2022/08/06 05:11:15;;;;;;;3.42;2.05;;;;;;;19.90;51.95;96351.47;5045014;28;20206;-76
2022/08/06 05:13:43;;;;;;;4.15;2.08;;;;;;;20.71;49.25;96356.53;5037559;28;20288;-77
2022/08/06 05:16:10;;;;;;;2.00;1.70;;;;;;;21.78;46.30;96356.97;5022589;28;20191;-79
2022/08/06 05:18:43;;;;;;;3.17;1.63;;;;;;;21.62;45.32;96355.50;4999417;28;20266;-77
2022/08/06 05:21:09;;;;;;;5.10;1.75;;;;;;;21.84;45.54;96363.31;5006075;28;20191;-79
2022/08/06 05:23:37;;;;;;;2.47;1.70;;;;;;;21.57;46.02;96357.91;5044313;28;20195;-76
2022/08/06 05:26:03;;;;;;;2.08;1.88;;;;;;;21.70;45.41;96363.25;5029789;28;20197;-77
2022/08/06 05:28:28;;;;;;;3.88;1.63;;;;;;;21.08;46.84;96368.56;5062731;28;20178;-77
2022/08/06 05:30:54;;;;;;;1.80;1.70;;;;;;;21.37;46.47;96370.19;5043291;28;20187;-77
2022/08/06 05:33:28;;;;;;;4.22;1.80;;;;;;;21.97;44.89;96371.28;5045309;28;20277;-76
2022/08/06 05:35:54;;;;;;;1.88;1.48;;;;;;;21.08;46.49;96358.81;5036713;28;20236;-77
2022/08/06 05:38:19;;;;;;;2.33;1.90;;;;;;;20.76;48.06;96364.69;5023531;28;20207;-79
2022/08/06 05:40:46;;;;;;;4.97;2.00;;;;;;;19.44;51.08;96372.78;5015915;28;20227;-78
2022/08/06 05:43:11;;;;;;;3.20;2.25;;;;;;;18.95;53.51;96367.22;5015513;28;20366;-78
2022/08/06 05:45:39;;;;;;;4.32;1.88;;;;;;;19.11;53.52;96358.34;5031903;28;20187;-78
2022/08/06 05:48:04;;;;;;;3.33;2.42;;;;;;;18.84;53.93;96357.94;5026093;28;20642;-79
2022/08/06 05:50:34;;;;;;;3.95;2.13;;;;;;;19.23;53.54;96368.22;5031780;28;20259;-78
2022/08/06 05:53:08;;;;;;;3.70;2.03;;;;;;;19.40;53.17;96368.88;5025220;28;20645;-78
2022/08/06 05:55:56;;;;;;;2.75;1.80;;;;;;;20.09;50.46;96377.22;5024980;28;20186;-79
2022/08/06 05:58:30;;;;;;;3.42;2.17;;;;;;;20.80;48.64;96381.78;5035104;28;20566;-79
2022/08/06 06:00:58;;;;;;;2.67;1.60;;;;;;;20.90;48.27;96383.06;5025668;28;20265;-78
2022/08/06 06:03:27;;;;;;;2.38;2.17;;;;;;;20.97;48.07;96383.13;5021099;28;20274;-79
2022/08/06 06:05:54;;;;;;;6.28;2.08;;;;;;;20.97;47.54;96388.41;5023900;28;20183;-79
2022/08/06 06:08:20;;;;;;;5.13;2.00;;;;;;;20.15;49.98;96391.50;5041483;28;20175;-79
2022/08/06 06:10:45;;;;;;;4.05;2.42;;;;;;;20.23;50.18;96390.53;5032491;28;20187;-79
2022/08/06 06:13:11;;;;;;;3.03;2.10;;;;;;;21.07;47.73;96403.91;5024073;28;20689;-79
2022/08/06 06:15:42;;;;;;;3.78;2.13;;;;;;;20.54;48.57;96393.72;5041538;28;20265;-78
2022/08/06 06:18:36;;;;;;;2.63;2.30;;;;;;;21.68;46.09;96399.66;5020952;28;20176;-78
2022/08/06 06:21:16;;;;;;;2.33;2.08;;;;;;;22.46;43.78;96399.31;5005283;28;20685;-78
2022/08/06 06:23:44;;;;;;;1.90;1.70;;;;;;;22.27;44.26;96407.03;5020350;28;20586;-79
2022/08/06 06:26:20;;;;;;;4.50;2.00;;;;;;;22.87;43.10;96407.13;5017106;28;20616;-79
2022/08/06 06:29:08;;;;;;;3.22;2.00;;;;;;;22.89;42.13;96411.22;5021635;28;20285;-78
2022/08/06 06:31:52;;;;;;;3.15;1.88;;;;;;;23.97;40.17;96416.94;5020732;28;20186;-79
2022/08/06 06:34:29;;;;;;;5.15;2.35;;;;;;;24.30;39.02;96415.97;5022021;28;20305;-80
2022/08/06 06:37:14;;;;;;;3.97;2.10;;;;;;;24.35;39.39;96424.13;5022840;28;20182;-80
2022/08/06 06:39:47;;;;;;;3.50;2.08;;;;;;;23.05;41.89;96420.56;5016529;28;20207;-79
2022/08/06 06:42:16;;;;;;;3.05;1.73;;;;;;;24.97;38.54;96414.53;5009644;28;20222;-80
2022/08/06 06:45:15;;;;;;;5.50;2.20;;;;;;;24.45;38.59;96416.50;5025918;28;20213;-79
2022/08/06 06:47:52;;;;;;;5.20;1.98;;;;;;;24.62;37.96;96416.00;4999977;28;20191;-79
2022/08/06 06:50:27;;;;;;;2.38;1.63;;;;;;;24.41;38.18;96415.31;5029142;28;20174;-78
2022/08/06 06:52:53;;;;;;;5.07;2.00;;;;;;;25.47;36.72;96422.50;5008217;28;20188;-79
2022/08/06 06:55:24;;;;;;;3.20;1.98;;;;;;;25.50;36.56;96419.38;5009573;28;20192;-79
2022/08/06 06:58:15;;;;;;;3.13;1.70;;;;;;;25.63;35.63;96429.91;5035859;28;20232;-80
2022/08/06 07:00:42;;;;;;;1.92;1.60;;;;;;;24.72;35.13;96432.28;5038049;28;20275;-78
2022/08/06 07:03:08;;;;;;;6.10;2.13;;;;;;;23.57;37.85;96432.13;5025221;28;20586;-79
2022/08/06 07:05:34;;;;;;;4.72;2.17;;;;;;;24.54;36.24;96425.84;5043050;28;20193;-79
2022/08/06 07:08:01;;;;;;;1.63;1.52;;;;;;;25.36;34.15;96433.88;5041846;28;20199;-77
2022/08/06 07:10:26;;;;;;;3.05;1.92;;;;;;;24.68;35.95;96425.78;5007715;28;20183;-79
2022/08/06 07:12:53;;;;;;;3.67;1.75;;;;;;;24.97;34.94;96432.31;5018029;28;20222;-80
2022/08/06 07:15:19;;;;;;;1.98;1.50;;;;;;;25.43;34.06;96438.06;5033997;28;20201;-80
2022/08/06 07:17:46;;;;;;;4.45;1.55;;;;;;;24.75;35.84;96437.19;5025127;28;20175;-80
2022/08/06 07:20:13;;;;;;;2.45;1.77;;;;;;;24.80;35.29;96435.50;5036537;28;20324;-79
2022/08/06 07:22:41;;;;;;;2.17;1.60;;;;;;;24.83;34.98;96436.91;5042406;28;20179;-79
2022/08/06 07:25:09;;;;;;;4.55;1.83;;;;;;;24.33;36.09;96434.16;5024586;28;20180;-78
2022/08/06 07:27:48;;;;;;;1.90;1.60;;;;;;;22.61;39.03;96429.88;5038118;28;20210;-79
2022/08/06 07:30:15;;;;;;;3.83;2.15;;;;;;;23.08;38.21;96433.41;5024503;28;20186;-80
2022/08/06 07:32:43;;;;;;;1.80;1.70;;;;;;;22.76;38.83;96431.53;5026465;28;20217;-78
2022/08/06 07:35:09;;;;;;;5.05;1.80;;;;;;;22.58;39.27;96435.56;5026802;28;20193;-78
2022/08/06 07:37:35;;;;;;;4.20;2.00;;;;;;;22.91;38.68;96439.31;5024036;28;20660;-79
2022/08/06 07:40:02;;;;;;;1.88;1.38;;;;;;;22.30;39.03;96443.66;5008496;28;20221;-79
2022/08/06 07:42:28;;;;;;;2.47;1.25;;;;;;;23.16;37.94;96432.41;5036139;28;20248;-78
2022/08/06 07:44:58;;;;;;;3.88;1.58;;;;;;;22.80;38.95;96425.63;5004345;28;20204;-79
2022/08/06 07:47:34;;;;;;;3.13;1.40;;;;;;;22.94;38.63;96434.41;5008338;28;20182;-79
2022/08/06 07:49:59;;;;;;;5.03;1.60;;;;;;;23.39;37.80;96438.06;5020789;28;20183;-80
2022/08/06 07:52:25;;;;;;;3.95;2.40;;;;;;;21.99;39.01;96430.88;5024869;28;20283;-79
2022/08/06 07:54:52;;;;;;;2.88;2.10;;;;;;;21.37;40.43;96425.69;5025461;28;20741;-79
2022/08/06 07:57:17;;;;;;;3.05;1.60;;;;;;;20.70;42.88;96426.97;5024074;28;20615;-78
2022/08/06 07:59:43;;;;;;;2.83;1.50;;;;;;;20.60;42.80;96426.47;5026927;28;20210;-79
2022/08/06 08:02:09;;;;;;;3.35;1.73;;;;;;;20.67;42.71;96429.16;5007611;28;20294;-79
2022/08/06 08:07:20;;;;;;;1.63;1.52;;;;;;;19.82;43.17;96435.94;5040427;28;20274;-79
2022/08/06 08:09:46;;;;;;;3.67;1.30;;;;;;;19.20;44.75;96423.09;5040940;28;20176;-78
2022/08/06 08:12:13;;;;;;;2.90;1.90;;;;;;;19.00;46.71;96422.78;5024187;28;20186;-79
2022/08/06 08:14:40;;;;;;;4.38;1.60;;;;;;;19.46;45.96;96426.09;5033255;28;20585;-78
2022/08/06 08:17:05;;;;;;;2.55;1.48;;;;;;;19.08;44.87;96427.13;5017130;28;20179;-79
2022/08/06 08:19:32;;;;;;;2.67;1.33;;;;;;;19.17;43.97;96420.78;5024311;28;20273;-77
2022/08/06 08:22:13;;;;;;;3.63;1.30;;;;;;;19.35;43.61;96428.38;5043500;28;20182;-79
2022/08/06 08:24:39;;;;;;;1.90;1.55;;;;;;;19.53;43.21;96431.47;5009654;28;20206;-79
2022/08/06 08:27:09;;;;;;;3.20;1.70;;;;;;;19.73;42.37;96421.22;5008080;28;20183;-79
2022/08/06 08:29:35;;;;;;;2.45;2.00;;;;;;;20.12;41.93;96422.69;5023828;28;20179;-80
2022/08/06 08:32:00;;;;;;;3.22;1.38;;;;;;;20.27;41.75;96420.81;5027239;28;20643;-79
2022/08/06 08:34:26;;;;;;;1.90;1.50;;;;;;;20.36;41.57;96419.72;5023609;28;20250;-79
2022/08/06 08:36:51;;;;;;;1.95;1.30;;;;;;;20.35;41.73;96416.25;5023767;28;20187;-79
2022/08/06 08:39:17;;;;;;;3.08;1.30;;;;;;;19.92;42.20;96419.81;5041572;28;20627;-80
2022/08/06 08:42:02;;;;;;;3.70;1.60;;;;;;;19.58;43.30;96430.94;5040245;28;20183;-79
2022/08/06 08:44:27;;;;;;;3.33;1.95;;;;;;;19.32;43.37;96424.25;5019558;28;20207;-78
2022/08/06 08:46:57;;;;;;;1.70;1.58;;;;;;;19.38;43.33;96428.00;5007374;28;20178;-79
2022/08/06 08:49:28;;;;;;;2.88;1.67;;;;;;;19.75;42.59;96419.19;5041937;28;20178;-79
2022/08/06 08:51:55;;;;;;;3.47;1.33;;;;;;;19.84;42.12;96422.56;5031297;28;20186;-80
2022/08/06 08:54:21;;;;;;;7.47;1.50;;;;;;;19.98;42.41;96419.09;5032619;28;20210;-79
2022/08/06 08:56:47;;;;;;;2.92;1.58;;;;;;;19.93;41.66;96422.28;5015247;28;20216;-79
2022/08/06 08:59:13;;;;;;;1.50;1.35;;;;;;;19.40;42.41;96420.72;5023675;28;20202;-79
2022/08/06 09:01:39;;;;;;;3.63;1.42;;;;;;;19.48;42.13;96429.34;5025013;28;20214;-78
2022/08/06 09:04:04;;;;;;;2.42;1.33;;;;;;;19.49;41.16;96417.81;5003128;28;20204;-79
2022/08/06 09:06:32;;;;;;;2.90;1.13;;;;;;;19.98;41.08;96427.81;5025212;28;20221;-78
2022/08/06 09:09:03;;;;;;;3.72;1.10;;;;;;;20.52;39.64;96422.13;5020944;28;20743;-79
2022/08/06 09:11:28;;;;;;;1.25;0.98;;;;;;;20.42;39.41;96426.88;5004862;28;20187;-80
2022/08/06 09:13:53;;;;;;;1.58;0.98;;;;;;;20.73;39.45;96434.50;5006552;28;20393;-81
2022/08/06 09:16:19;;;;;;;2.30;1.15;;;;;;;20.40;39.50;96430.69;5027010;28;20179;-80
2022/08/06 09:18:44;;;;;;;1.95;1.27;;;;;;;19.97;39.64;96438.56;5024432;28;20746;-80
2022/08/06 09:21:09;;;;;;;3.58;1.30;;;;;;;20.55;39.57;96437.59;5039820;28;20811;-79
2022/08/06 09:23:37;;;;;;;2.72;1.10;;;;;;;19.88;39.31;96429.09;5021998;28;20298;-79
2022/08/06 09:26:04;;;;;;;1.33;1.00;;;;;;;20.29;39.29;96426.72;5031242;28;20183;-83
2022/08/06 09:28:30;;;;;;;2.55;1.00;;;;;;;20.38;38.13;96436.16;5005185;28;20218;-83
2022/08/06 09:31:02;;;;;;;4.20;1.02;;;;;;;20.40;38.50;96436.78;5023407;28;20912;-83
2022/08/06 09:33:30;;;;;;;3.70;1.23;;;;;;;20.57;37.75;96440.84;5020529;28;20215;-83
2022/08/06 09:36:07;;;;;;;1.73;1.10;;;;;;;20.48;37.33;96441.16;5001108;28;20226;-83
2022/08/06 09:38:45;;;;;;;3.35;1.27;;;;;;;19.95;38.72;96437.91;5035074;28;20230;-83
2022/08/06 09:41:11;;;;;;;2.58;1.10;;;;;;;20.23;38.16;96436.22;5034883;28;20187;-83
2022/08/06 09:43:37;;;;;;;4.50;1.27;;;;;;;20.40;37.75;96444.69;5021306;28;20256;-84
2022/08/06 09:46:04;;;;;;;2.30;1.20;;;;;;;20.79;36.76;96438.22;5026073;28;20185;-83
2022/08/06 09:48:29;;;;;;;3.45;1.20;;;;;;;20.30;37.99;96431.81;5006247;28;20191;-83
2022/08/06 09:50:55;;;;;;;2.95;1.10;;;;;;;20.45;37.72;96436.25;5023424;28;20273;-83
2022/08/06 09:53:22;;;;;;;3.22;1.10;;;;;;;20.56;37.27;96439.22;5033324;28;20214;-83
2022/08/06 09:55:49;;;;;;;2.53;1.33;;;;;;;20.59;37.07;96433.59;5021262;28;20194;-83
2022/08/06 09:58:26;;;;;;;3.10;1.20;;;;;;;21.01;35.70;96437.19;5006053;28;20186;-84
2022/08/06 10:00:51;;;;;;;4.20;1.30;;;;;;;20.87;36.67;96430.16;5019976;28;20190;-84
2022/08/06 10:03:16;;;;;;;3.13;1.00;;;;;;;20.61;36.70;96425.47;5005571;28;20215;-84
2022/08/06 10:05:43;;;;;;;2.70;1.08;;;;;;;20.84;36.33;96430.53;5031676;28;20240;-84
2022/08/06 10:08:13;;;;;;;3.22;1.20;;;;;;;21.38;35.92;96419.38;5022321;28;20191;-83
2022/08/06 10:10:44;;;;;;;5.18;1.17;;;;;;;21.24;36.59;96428.22;5005386;28;20179;-83
2022/08/06 10:13:14;;;;;;;1.75;1.00;;;;;;;21.45;36.08;96431.63;5017965;28;20202;-82
2022/08/06 10:15:39;;;;;;;1.33;1.02;;;;;;;21.23;36.38;96439.78;5023580;28;20225;-83
2022/08/06 10:18:04;;;;;;;2.63;1.25;;;;;;;21.30;35.88;96440.69;5036026;28;20206;-82
2022/08/06 10:20:30;;;;;;;1.17;0.98;;;;;;;21.65;35.30;96429.13;5042617;28;20203;-82
2022/08/06 10:22:56;;;;;;;2.53;1.17;;;;;;;21.80;34.14;96425.50;5027398;28;20674;-82
2022/08/06 10:25:23;;;;;;;2.30;1.40;;;;;;;22.15;34.66;96423.66;5027675;28;20179;-82
2022/08/06 10:27:53;;;;;;;2.30;1.02;;;;;;;22.26;34.46;96429.22;5007971;28;20190;-83
2022/08/06 10:30:20;;;;;;;1.80;0.90;;;;;;;21.57;34.84;96437.22;5025457;28;20250;-83
2022/08/06 10:32:53;;;;;;;2.17;1.40;;;;;;;21.67;34.75;96436.84;5026984;28;20190;-83
2022/08/06 10:35:22;;;;;;;1.95;1.08;;;;;;;21.55;35.26;96433.91;5013819;28;20179;-82
2022/08/06 10:37:51;;;;;;;1.30;1.10;;;;;;;21.57;34.97;96434.56;5030672;28;20183;-81
2022/08/06 10:40:19;;;;;;;2.33;1.10;;;;;;;21.74;34.82;96433.25;5024650;28;20207;-82
2022/08/06 10:42:45;;;;;;;4.45;1.42;;;;;;;21.91;34.08;96425.78;5025296;28;20233;-83
2022/08/06 10:45:11;;;;;;;2.55;1.08;;;;;;;21.56;34.24;96429.47;5020947;28;20175;-82
2022/08/06 10:47:38;;;;;;;3.92;1.38;;;;;;;21.92;33.86;96432.72;5026778;28;20189;-83
2022/08/06 10:50:04;;;;;;;8.85;1.45;;;;;;;22.08;33.72;96428.09;5041830;28;20234;-83
2022/08/06 10:52:31;;;;;;;4.38;1.15;;;;;;;21.86;34.07;96425.56;5022434;28;20210;-82
2022/08/06 10:54:59;;;;;;;2.88;1.30;;;;;;;21.84;34.55;96430.22;5026675;28;20202;-82
2022/08/06 10:57:25;;;;;;;1.30;1.20;;;;;;;21.59;35.10;96437.00;5028139;28;20175;-83
2022/08/06 10:59:51;;;;;;;1.23;1.10;;;;;;;22.19;34.40;96423.06;5035639;28;20285;-83
2022/08/06 11:02:23;;;;;;;2.70;0.90;;;;;;;22.20;34.04;96429.19;5028012;28;20650;-82
2022/08/06 11:05:05;;;;;;;2.65;1.02;;;;;;;22.95;32.78;96417.50;5032048;28;20210;-82
2022/08/06 11:07:54;;;;;;;3.53;1.20;;;;;;;22.64;33.30;96426.03;5029311;28;20186;-82
2022/08/06 11:10:34;;;;;;;1.67;1.35;;;;;;;22.40;33.28;96423.94;5025341;28;20190;-82
2022/08/06 11:13:22;;;;;;;3.08;1.10;;;;;;;22.48;33.49;96429.03;5031649;28;20334;-82
2022/08/06 11:15:48;;;;;;;3.15;1.05;;;;;;;22.74;32.89;96423.78;5022358;28;20179;-82
2022/08/06 11:18:13;;;;;;;5.82;1.52;;;;;;;21.97;33.21;96417.06;5028113;28;20244;-82
2022/08/06 11:20:42;;;;;;;5.95;1.17;;;;;;;22.64;32.23;96418.09;5037043;28;20581;-82
2022/08/06 11:23:13;;;;;;;2.53;1.23;;;;;;;22.59;32.95;96410.72;5036216;28;20190;-83
2022/08/06 11:25:50;;;;;;;3.42;1.25;;;;;;;22.84;33.09;96423.38;5046609;28;20167;-83
2022/08/06 11:28:19;;;;;;;4.03;1.13;;;;;;;23.08;32.80;96414.06;5045255;28;20257;-83
2022/08/06 11:30:53;;;;;;;4.45;1.13;;;;;;;23.14;32.52;96413.22;5047510;28;20225;-83
2022/08/06 11:33:21;;;;;;;2.72;1.23;;;;;;;23.01;32.97;96423.84;5039104;28;20234;-82
2022/08/06 11:35:52;;;;;;;5.05;1.40;;;;;;;23.17;32.68;96402.22;5023993;28;20564;-83
2022/08/06 11:38:43;;;;;;;1.63;1.52;;;;;;;23.17;32.78;96404.88;5021493;28;20643;-83
2022/08/06 11:41:10;;;;;;;4.22;1.30;;;;;;;23.94;31.85;96398.81;5024359;28;20231;-82
2022/08/06 11:43:46;;;;;;;1.95;1.30;;;;;;;23.68;32.01;96394.41;5003497;28;20302;-82
2022/08/06 11:46:27;;;;;;;2.95;1.45;;;;;;;23.52;32.49;96386.06;5030323;28;20182;-82